sensor_id;sensor_type;location;lat;lon;timestamp;pressure;altitude;pressure_sealevel;temperature;humidity
43364;BME280;40636;52.424;-1.948;2023-09-19T00:00:44;98864.75;;;11.78;100.00
43364;BME280;40636;52.424;-1.948;2023-09-19T00:03:14;98853.50;;;11.74;100.00
43364;BME280;40636;52.424;-1.948;2023-09-19T00:05:41;98852.13;;;11.72;100.00
43364;BME280;40636;52.424;-1.948;2023-09-19T00:08:12;98852.47;;;11.65;100.00
43364;BME280;40636;52.424;-1.948;2023-09-19T00:10:43;98850.53;;;11.65;100.00
43364;BME280;40636;52.424;-1.948;2023-09-19T00:13:10;98846.72;;;11.61;100.00
43364;BME280;40636;52.424;-1.948;2023-09-19T00:15:44;98839.63;;;11.55;100.00
43364;BME280;40636;52.424;-1.948;2023-09-19T00:18:19;98841.81;;;11.58;100.00
43364;BME280;40636;52.424;-1.948;2023-09-19T00:20:48;98838.50;;;11.56;100.00
43364;BME280;40636;52.424;-1.948;2023-09-19T00:23:16;98834.66;;;11.57;100.00
43364;BME280;40636;52.424;-1.948;2023-09-19T00:25:43;98842.06;;;11.57;100.00
43364;BME280;40636;52.424;-1.948;2023-09-19T00:28:12;98845.66;;;11.52;100.00
43364;BME280;40636;52.424;-1.948;2023-09-19T00:30:42;98843.47;;;11.54;100.00
43364;BME280;40636;52.424;-1.948;2023-09-19T00:33:10;98853.06;;;11.57;100.00
43364;BME280;40636;52.424;-1.948;2023-09-19T00:35:38;98848.69;;;11.56;100.00
43364;BME280;40636;52.424;-1.948;2023-09-19T00:38:04;98848.38;;;11.57;100.00
43364;BME280;40636;52.424;-1.948;2023-09-19T00:40:33;98841.78;;;11.63;100.00
43364;BME280;40636;52.424;-1.948;2023-09-19T00:43:00;98832.97;;;11.61;100.00
43364;BME280;40636;52.424;-1.948;2023-09-19T00:45:27;98832.41;;;11.64;100.00
43364;BME280;40636;52.424;-1.948;2023-09-19T00:47:55;98823.88;;;11.66;100.00
43364;BME280;40636;52.424;-1.948;2023-09-19T00:50:25;98820.31;;;11.65;100.00
43364;BME280;40636;52.424;-1.948;2023-09-19T00:52:55;98819.16;;;11.72;100.00
43364;BME280;40636;52.424;-1.948;2023-09-19T00:55:24;98829.09;;;11.67;100.00
43364;BME280;40636;52.424;-1.948;2023-09-19T00:57:51;98827.47;;;11.61;100.00
43364;BME280;40636;52.424;-1.948;2023-09-19T01:00:19;98830.47;;;11.65;100.00
43364;BME280;40636;52.424;-1.948;2023-09-19T01:02:48;98824.47;;;11.58;100.00
43364;BME280;40636;52.424;-1.948;2023-09-19T01:05:15;98815.41;;;11.57;100.00
43364;BME280;40636;52.424;-1.948;2023-09-19T01:07:43;98829.44;;;11.56;100.00
43364;BME280;40636;52.424;-1.948;2023-09-19T01:10:17;98829.19;;;11.52;100.00
43364;BME280;40636;52.424;-1.948;2023-09-19T01:13:09;98824.28;;;11.49;100.00
43364;BME280;40636;52.424;-1.948;2023-09-19T01:15:55;98836.09;;;11.50;100.00
43364;BME280;40636;52.424;-1.948;2023-09-19T01:21:26;98833.94;;;11.41;100.00
43364;BME280;40636;52.424;-1.948;2023-09-19T01:29:26;98825.09;;;11.50;100.00
43364;BME280;40636;52.424;-1.948;2023-09-19T01:32:03;98828.09;;;11.48;100.00
43364;BME280;40636;52.424;-1.948;2023-09-19T01:37:20;98812.75;;;11.47;100.00
43364;BME280;40636;52.424;-1.948;2023-09-19T01:39:58;98804.50;;;11.47;100.00
43364;BME280;40636;52.424;-1.948;2023-09-19T01:42:44;98818.53;;;11.46;100.00
43364;BME280;40636;52.424;-1.948;2023-09-19T01:45:24;98822.94;;;11.41;100.00
43364;BME280;40636;52.424;-1.948;2023-09-19T01:47:55;98815.00;;;11.40;100.00
43364;BME280;40636;52.424;-1.948;2023-09-19T01:50:42;98819.63;;;11.39;100.00
43364;BME280;40636;52.424;-1.948;2023-09-19T01:53:15;98818.78;;;11.44;100.00
43364;BME280;40636;52.424;-1.948;2023-09-19T01:55:49;98819.34;;;11.46;100.00
43364;BME280;40636;52.424;-1.948;2023-09-19T02:00:50;98816.03;;;11.44;100.00
43364;BME280;40636;52.424;-1.948;2023-09-19T02:03:21;98819.09;;;11.42;100.00
43364;BME280;40636;52.424;-1.948;2023-09-19T02:05:52;98819.63;;;11.45;100.00
43364;BME280;40636;52.424;-1.948;2023-09-19T02:08:22;98813.84;;;11.46;100.00
43364;BME280;40636;52.424;-1.948;2023-09-19T02:10:52;98811.13;;;11.41;100.00
43364;BME280;40636;52.424;-1.948;2023-09-19T02:13:21;98812.22;;;11.45;100.00
43364;BME280;40636;52.424;-1.948;2023-09-19T02:15:49;98806.13;;;11.48;100.00
43364;BME280;40636;52.424;-1.948;2023-09-19T02:18:16;98813.28;;;11.49;100.00
43364;BME280;40636;52.424;-1.948;2023-09-19T02:20:43;98807.50;;;11.51;100.00
43364;BME280;40636;52.424;-1.948;2023-09-19T02:23:10;98789.59;;;11.53;100.00
43364;BME280;40636;52.424;-1.948;2023-09-19T02:25:37;98809.41;;;11.55;100.00
43364;BME280;40636;52.424;-1.948;2023-09-19T02:28:06;98790.97;;;11.56;100.00
43364;BME280;40636;52.424;-1.948;2023-09-19T02:30:33;98789.81;;;11.62;100.00
43364;BME280;40636;52.424;-1.948;2023-09-19T02:33:00;98793.38;;;11.62;100.00
43364;BME280;40636;52.424;-1.948;2023-09-19T02:35:30;98792.56;;;11.62;100.00
43364;BME280;40636;52.424;-1.948;2023-09-19T02:38:02;98786.22;;;11.66;100.00
43364;BME280;40636;52.424;-1.948;2023-09-19T02:40:33;98780.69;;;11.72;100.00
43364;BME280;40636;52.424;-1.948;2023-09-19T02:43:03;98780.41;;;11.73;100.00
43364;BME280;40636;52.424;-1.948;2023-09-19T02:45:31;98782.31;;;11.78;100.00
43364;BME280;40636;52.424;-1.948;2023-09-19T02:47:58;98782.00;;;11.79;100.00
43364;BME280;40636;52.424;-1.948;2023-09-19T02:50:25;98773.22;;;11.82;100.00
43364;BME280;40636;52.424;-1.948;2023-09-19T02:52:52;98776.78;;;11.83;100.00
43364;BME280;40636;52.424;-1.948;2023-09-19T02:55:20;98756.13;;;11.85;100.00
43364;BME280;40636;52.424;-1.948;2023-09-19T02:57:49;98761.63;;;11.90;100.00
43364;BME280;40636;52.424;-1.948;2023-09-19T03:00:18;98761.31;;;11.92;100.00
43364;BME280;40636;52.424;-1.948;2023-09-19T03:02:52;98752.19;;;11.97;100.00
43364;BME280;40636;52.424;-1.948;2023-09-19T03:05:20;98745.31;;;11.99;100.00
43364;BME280;40636;52.424;-1.948;2023-09-19T03:07:47;98750.53;;;12.01;100.00
43364;BME280;40636;52.424;-1.948;2023-09-19T03:10:18;98752.97;;;12.02;100.00
43364;BME280;40636;52.424;-1.948;2023-09-19T03:12:49;98742.47;;;12.09;100.00
43364;BME280;40636;52.424;-1.948;2023-09-19T03:15:16;98722.63;;;12.12;100.00
43364;BME280;40636;52.424;-1.948;2023-09-19T03:17:46;98721.22;;;12.15;100.00
43364;BME280;40636;52.424;-1.948;2023-09-19T03:20:15;98712.66;;;12.16;100.00
43364;BME280;40636;52.424;-1.948;2023-09-19T03:22:44;98717.59;;;12.19;100.00
43364;BME280;40636;52.424;-1.948;2023-09-19T03:25:12;98722.84;;;12.16;100.00
43364;BME280;40636;52.424;-1.948;2023-09-19T03:27:39;98710.72;;;12.22;100.00
43364;BME280;40636;52.424;-1.948;2023-09-19T03:30:07;98704.34;;;12.22;100.00
43364;BME280;40636;52.424;-1.948;2023-09-19T03:32:47;98692.03;;;12.19;100.00
43364;BME280;40636;52.424;-1.948;2023-09-19T03:35:17;98699.47;;;12.18;100.00
43364;BME280;40636;52.424;-1.948;2023-09-19T03:37:44;98695.09;;;12.17;100.00
43364;BME280;40636;52.424;-1.948;2023-09-19T03:40:11;98692.03;;;12.19;100.00
43364;BME280;40636;52.424;-1.948;2023-09-19T03:42:39;98671.91;;;12.24;100.00
43364;BME280;40636;52.424;-1.948;2023-09-19T03:45:09;98670.78;;;12.25;100.00
43364;BME280;40636;52.424;-1.948;2023-09-19T03:47:40;98669.38;;;12.27;100.00
43364;BME280;40636;52.424;-1.948;2023-09-19T03:50:07;98675.72;;;12.28;100.00
43364;BME280;40636;52.424;-1.948;2023-09-19T03:52:34;98682.03;;;12.28;100.00
43364;BME280;40636;52.424;-1.948;2023-09-19T03:55:01;98671.84;;;12.29;100.00
43364;BME280;40636;52.424;-1.948;2023-09-19T03:57:31;98663.81;;;12.32;100.00
43364;BME280;40636;52.424;-1.948;2023-09-19T03:59:58;98652.28;;;12.30;100.00
43364;BME280;40636;52.424;-1.948;2023-09-19T04:02:25;98659.88;;;12.38;100.00
43364;BME280;40636;52.424;-1.948;2023-09-19T04:04:52;98654.09;;;12.40;100.00
43364;BME280;40636;52.424;-1.948;2023-09-19T04:07:19;98646.38;;;12.42;100.00
43364;BME280;40636;52.424;-1.948;2023-09-19T04:09:49;98643.63;;;12.42;100.00
43364;BME280;40636;52.424;-1.948;2023-09-19T04:12:16;98638.63;;;12.44;100.00
43364;BME280;40636;52.424;-1.948;2023-09-19T04:14:45;98633.13;;;12.44;100.00
43364;BME280;40636;52.424;-1.948;2023-09-19T04:17:12;98630.09;;;12.46;100.00
43364;BME280;40636;52.424;-1.948;2023-09-19T04:19:39;98627.94;;;12.42;100.00
43364;BME280;40636;52.424;-1.948;2023-09-19T04:22:07;98610.59;;;12.42;100.00
43364;BME280;40636;52.424;-1.948;2023-09-19T04:24:35;98607.84;;;12.42;100.00
43364;BME280;40636;52.424;-1.948;2023-09-19T04:27:02;98610.59;;;12.42;100.00
43364;BME280;40636;52.424;-1.948;2023-09-19T04:29:29;98606.72;;;12.43;100.00
43364;BME280;40636;52.424;-1.948;2023-09-19T04:31:56;98612.22;;;12.43;100.00
43364;BME280;40636;52.424;-1.948;2023-09-19T04:34:26;98605.09;;;12.42;100.00
43364;BME280;40636;52.424;-1.948;2023-09-19T04:36:54;98602.84;;;12.44;100.00
43364;BME280;40636;52.424;-1.948;2023-09-19T04:39:21;98601.00;;;12.39;100.00
43364;BME280;40636;52.424;-1.948;2023-09-19T04:41:47;98596.53;;;12.43;100.00
43364;BME280;40636;52.424;-1.948;2023-09-19T04:44:14;98595.16;;;12.46;100.00
43364;BME280;40636;52.424;-1.948;2023-09-19T04:46:42;98589.06;;;12.49;100.00
43364;BME280;40636;52.424;-1.948;2023-09-19T04:49:09;98586.00;;;12.51;100.00
43364;BME280;40636;52.424;-1.948;2023-09-19T04:51:36;98590.63;;;12.55;100.00
43364;BME280;40636;52.424;-1.948;2023-09-19T04:54:03;98572.47;;;12.54;100.00
43364;BME280;40636;52.424;-1.948;2023-09-19T04:56:30;98562.50;;;12.58;100.00
43364;BME280;40636;52.424;-1.948;2023-09-19T04:58:59;98559.81;;;12.53;100.00
43364;BME280;40636;52.424;-1.948;2023-09-19T05:01:26;98554.84;;;12.55;100.00
43364;BME280;40636;52.424;-1.948;2023-09-19T05:03:53;98549.03;;;12.57;100.00
43364;BME280;40636;52.424;-1.948;2023-09-19T05:06:20;98545.16;;;12.58;100.00
43364;BME280;40636;52.424;-1.948;2023-09-19T05:08:50;98537.75;;;12.58;100.00
43364;BME280;40636;52.424;-1.948;2023-09-19T05:11:21;98537.19;;;12.56;100.00
43364;BME280;40636;52.424;-1.948;2023-09-19T05:13:49;98521.44;;;12.62;100.00
43364;BME280;40636;52.424;-1.948;2023-09-19T05:16:28;98520.25;;;12.68;100.00
43364;BME280;40636;52.424;-1.948;2023-09-19T05:18:56;98502.84;;;12.73;100.00
43364;BME280;40636;52.424;-1.948;2023-09-19T05:21:23;98499.53;;;12.70;100.00
43364;BME280;40636;52.424;-1.948;2023-09-19T05:23:51;98505.13;;;12.65;100.00
43364;BME280;40636;52.424;-1.948;2023-09-19T05:26:19;98507.59;;;12.67;100.00
43364;BME280;40636;52.424;-1.948;2023-09-19T05:28:46;98507.53;;;12.72;100.00
43364;BME280;40636;52.424;-1.948;2023-09-19T05:31:14;98502.53;;;12.74;100.00
43364;BME280;40636;52.424;-1.948;2023-09-19T05:33:42;98498.28;;;12.82;100.00
43364;BME280;40636;52.424;-1.948;2023-09-19T05:36:09;98476.84;;;12.79;100.00
43364;BME280;40636;52.424;-1.948;2023-09-19T05:38:38;98466.16;;;12.77;100.00
43364;BME280;40636;52.424;-1.948;2023-09-19T05:41:08;98472.69;;;12.81;100.00
43364;BME280;40636;52.424;-1.948;2023-09-19T05:43:37;98459.97;;;12.85;100.00
43364;BME280;40636;52.424;-1.948;2023-09-19T05:46:05;98460.16;;;12.89;100.00
43364;BME280;40636;52.424;-1.948;2023-09-19T05:48:32;98470.06;;;12.90;100.00
43364;BME280;40636;52.424;-1.948;2023-09-19T05:50:59;98465.66;;;12.89;100.00
43364;BME280;40636;52.424;-1.948;2023-09-19T05:53:28;98461.81;;;12.90;100.00
43364;BME280;40636;52.424;-1.948;2023-09-19T05:55:55;98462.63;;;12.90;100.00
43364;BME280;40636;52.424;-1.948;2023-09-19T05:58:22;98446.91;;;12.91;100.00
43364;BME280;40636;52.424;-1.948;2023-09-19T06:00:49;98442.53;;;12.90;100.00
43364;BME280;40636;52.424;-1.948;2023-09-19T06:03:16;98421.59;;;12.89;100.00
43364;BME280;40636;52.424;-1.948;2023-09-19T06:05:45;98427.31;;;12.92;100.00
43364;BME280;40636;52.424;-1.948;2023-09-19T06:08:16;98429.25;;;12.92;100.00
43364;BME280;40636;52.424;-1.948;2023-09-19T06:10:43;98417.94;;;12.93;100.00
43364;BME280;40636;52.424;-1.948;2023-09-19T06:13:10;98427.63;;;12.91;100.00
43364;BME280;40636;52.424;-1.948;2023-09-19T06:15:37;98410.00;;;12.92;100.00
43364;BME280;40636;52.424;-1.948;2023-09-19T06:18:04;98403.25;;;12.98;100.00
43364;BME280;40636;52.424;-1.948;2023-09-19T06:20:32;98396.94;;;12.98;100.00
43364;BME280;40636;52.424;-1.948;2023-09-19T06:23:00;98397.66;;;13.03;100.00
43364;BME280;40636;52.424;-1.948;2023-09-19T06:25:28;98391.84;;;13.05;100.00
43364;BME280;40636;52.424;-1.948;2023-09-19T06:27:55;98390.31;;;13.12;100.00
43364;BME280;40636;52.424;-1.948;2023-09-19T06:30:24;98383.06;;;13.16;100.00
43364;BME280;40636;52.424;-1.948;2023-09-19T06:32:57;98381.97;;;13.17;100.00
43364;BME280;40636;52.424;-1.948;2023-09-19T06:35:24;98384.72;;;13.17;100.00
43364;BME280;40636;52.424;-1.948;2023-09-19T06:37:53;98381.25;;;13.26;100.00
43364;BME280;40636;52.424;-1.948;2023-09-19T06:40:20;98386.16;;;13.29;100.00
43364;BME280;40636;52.424;-1.948;2023-09-19T06:42:50;98377.41;;;13.27;100.00
43364;BME280;40636;52.424;-1.948;2023-09-19T06:45:17;98378.13;;;13.32;100.00
43364;BME280;40636;52.424;-1.948;2023-09-19T06:47:46;98371.78;;;13.32;100.00
43364;BME280;40636;52.424;-1.948;2023-09-19T06:50:21;98381.91;;;13.36;100.00
43364;BME280;40636;52.424;-1.948;2023-09-19T06:52:52;98378.81;;;13.38;100.00
43364;BME280;40636;52.424;-1.948;2023-09-19T06:55:22;98378.81;;;13.38;100.00
43364;BME280;40636;52.424;-1.948;2023-09-19T06:57:52;98377.56;;;13.44;100.00
43364;BME280;40636;52.424;-1.948;2023-09-19T07:00:21;98373.91;;;13.49;100.00
43364;BME280;40636;52.424;-1.948;2023-09-19T07:03:06;98376.75;;;13.57;100.00
43364;BME280;40636;52.424;-1.948;2023-09-19T07:05:39;98378.56;;;13.62;100.00
43364;BME280;40636;52.424;-1.948;2023-09-19T07:08:07;98391.44;;;13.66;100.00
43364;BME280;40636;52.424;-1.948;2023-09-19T07:10:34;98387.94;;;13.75;100.00
43364;BME280;40636;52.424;-1.948;2023-09-19T07:15:31;98383.66;;;13.82;100.00
43364;BME280;40636;52.424;-1.948;2023-09-19T07:18:00;98382.19;;;13.85;100.00
43364;BME280;40636;52.424;-1.948;2023-09-19T07:20:27;98379.16;;;13.86;100.00
43364;BME280;40636;52.424;-1.948;2023-09-19T07:22:59;98378.09;;;13.96;100.00
43364;BME280;40636;52.424;-1.948;2023-09-19T07:25:27;98368.69;;;13.97;100.00
43364;BME280;40636;52.424;-1.948;2023-09-19T07:27:56;98368.19;;;13.95;100.00
43364;BME280;40636;52.424;-1.948;2023-09-19T07:30:23;98370.44;;;13.93;100.00
43364;BME280;40636;52.424;-1.948;2023-09-19T07:32:50;98366.06;;;13.92;100.00
43364;BME280;40636;52.424;-1.948;2023-09-19T07:35:17;98370.56;;;13.88;100.00
43364;BME280;40636;52.424;-1.948;2023-09-19T07:37:46;98361.16;;;13.89;100.00
43364;BME280;40636;52.424;-1.948;2023-09-19T07:40:17;98359.53;;;13.88;100.00
43364;BME280;40636;52.424;-1.948;2023-09-19T07:42:44;98376.19;;;13.83;100.00
43364;BME280;40636;52.424;-1.948;2023-09-19T07:45:14;98381.81;;;13.78;100.00
43364;BME280;40636;52.424;-1.948;2023-09-19T07:47:48;98377.31;;;13.82;100.00
43364;BME280;40636;52.424;-1.948;2023-09-19T07:50:19;98368.72;;;13.83;100.00
43364;BME280;40636;52.424;-1.948;2023-09-19T07:52:47;98365.66;;;13.85;100.00
43364;BME280;40636;52.424;-1.948;2023-09-19T07:55:14;98360.84;;;13.90;100.00
43364;BME280;40636;52.424;-1.948;2023-09-19T07:57:46;98341.72;;;13.94;100.00
43364;BME280;40636;52.424;-1.948;2023-09-19T08:00:13;98358.22;;;14.08;100.00
43364;BME280;40636;52.424;-1.948;2023-09-19T08:02:41;98345.94;;;14.14;100.00
43364;BME280;40636;52.424;-1.948;2023-09-19T08:05:12;98348.59;;;14.19;100.00
43364;BME280;40636;52.424;-1.948;2023-09-19T08:07:45;98341.59;;;14.21;100.00
43364;BME280;40636;52.424;-1.948;2023-09-19T08:10:19;98333.84;;;14.24;100.00
43364;BME280;40636;52.424;-1.948;2023-09-19T08:12:48;98318.09;;;14.24;100.00
43364;BME280;40636;52.424;-1.948;2023-09-19T08:15:19;98311.16;;;14.27;100.00
43364;BME280;40636;52.424;-1.948;2023-09-19T08:17:48;98319.91;;;14.29;100.00
43364;BME280;40636;52.424;-1.948;2023-09-19T08:20:16;98308.75;;;14.34;100.00
43364;BME280;40636;52.424;-1.948;2023-09-19T08:22:48;98309.69;;;14.29;100.00
43364;BME280;40636;52.424;-1.948;2023-09-19T08:25:16;98300.31;;;14.39;100.00
43364;BME280;40636;52.424;-1.948;2023-09-19T08:27:46;98286.09;;;14.45;100.00
43364;BME280;40636;52.424;-1.948;2023-09-19T08:30:19;98288.75;;;14.51;100.00
43364;BME280;40636;52.424;-1.948;2023-09-19T08:32:57;98286.66;;;14.56;100.00
43364;BME280;40636;52.424;-1.948;2023-09-19T08:35:26;98285.38;;;14.62;100.00
43364;BME280;40636;52.424;-1.948;2023-09-19T08:37:53;98289.84;;;14.72;100.00
43364;BME280;40636;52.424;-1.948;2023-09-19T08:40:22;98293.25;;;14.78;100.00
43364;BME280;40636;52.424;-1.948;2023-09-19T08:42:51;98288.75;;;14.90;100.00
43364;BME280;40636;52.424;-1.948;2023-09-19T08:45:18;98297.56;;;15.01;100.00
43364;BME280;40636;52.424;-1.948;2023-09-19T08:50:49;98266.44;;;15.27;100.00
43364;BME280;40636;52.424;-1.948;2023-09-19T08:53:26;98274.72;;;15.35;100.00
43364;BME280;40636;52.424;-1.948;2023-09-19T08:55:54;98257.47;;;15.38;100.00
43364;BME280;40636;52.424;-1.948;2023-09-19T08:58:31;98243.66;;;15.47;100.00
43364;BME280;40636;52.424;-1.948;2023-09-19T09:01:02;98230.81;;;15.60;100.00
43364;BME280;40636;52.424;-1.948;2023-09-19T09:03:32;98226.94;;;15.78;100.00
43364;BME280;40636;52.424;-1.948;2023-09-19T09:06:01;98226.31;;;15.81;100.00
43364;BME280;40636;52.424;-1.948;2023-09-19T09:08:30;98240.44;;;15.88;100.00
43364;BME280;40636;52.424;-1.948;2023-09-19T09:10:58;98243.84;;;15.94;100.00
43364;BME280;40636;52.424;-1.948;2023-09-19T09:13:25;98256.19;;;16.05;100.00
43364;BME280;40636;52.424;-1.948;2023-09-19T09:15:53;98261.56;;;16.10;100.00
43364;BME280;40636;52.424;-1.948;2023-09-19T09:18:21;98278.78;;;16.24;100.00
43364;BME280;40636;52.424;-1.948;2023-09-19T09:20:49;98290.97;;;16.41;100.00
43364;BME280;40636;52.424;-1.948;2023-09-19T09:23:16;98280.97;;;16.57;100.00
43364;BME280;40636;52.424;-1.948;2023-09-19T09:25:53;98284.22;;;16.77;100.00
43364;BME280;40636;52.424;-1.948;2023-09-19T09:28:27;98285.44;;;16.88;100.00
43364;BME280;40636;52.424;-1.948;2023-09-19T09:30:57;98284.94;;;16.94;100.00
43364;BME280;40636;52.424;-1.948;2023-09-19T09:33:25;98292.88;;;17.05;100.00
43364;BME280;40636;52.424;-1.948;2023-09-19T09:35:56;98293.38;;;16.98;100.00
43364;BME280;40636;52.424;-1.948;2023-09-19T09:38:27;98286.88;;;16.94;100.00
43364;BME280;40636;52.424;-1.948;2023-09-19T09:40:55;98291.31;;;16.95;100.00
43364;BME280;40636;52.424;-1.948;2023-09-19T09:51:41;98297.47;;;17.01;100.00
43364;BME280;40636;52.424;-1.948;2023-09-19T09:54:17;98304.59;;;17.10;100.00
43364;BME280;40636;52.424;-1.948;2023-09-19T09:57:01;98299.34;;;17.17;100.00
43364;BME280;40636;52.424;-1.948;2023-09-19T10:00:02;98302.88;;;17.27;100.00
43364;BME280;40636;52.424;-1.948;2023-09-19T10:02:39;98307.53;;;17.35;100.00
43364;BME280;40636;52.424;-1.948;2023-09-19T10:05:16;98304.50;;;17.28;100.00
43364;BME280;40636;52.424;-1.948;2023-09-19T10:07:55;98307.94;;;17.24;100.00
43364;BME280;40636;52.424;-1.948;2023-09-19T10:10:37;98302.19;;;17.30;100.00
43364;BME280;40636;52.424;-1.948;2023-09-19T10:13:14;98303.53;;;17.23;100.00
43364;BME280;40636;52.424;-1.948;2023-09-19T10:15:48;98307.41;;;17.31;100.00
43364;BME280;40636;52.424;-1.948;2023-09-19T10:18:23;98295.56;;;17.43;100.00
43364;BME280;40636;52.424;-1.948;2023-09-19T10:20:52;98297.50;;;17.51;100.00
43364;BME280;40636;52.424;-1.948;2023-09-19T10:23:20;98303.69;;;17.48;100.00
43364;BME280;40636;52.424;-1.948;2023-09-19T10:25:51;98298.84;;;17.45;100.00
43364;BME280;40636;52.424;-1.948;2023-09-19T10:28:20;98308.13;;;17.49;100.00
43364;BME280;40636;52.424;-1.948;2023-09-19T10:30:52;98318.06;;;17.50;100.00
43364;BME280;40636;52.424;-1.948;2023-09-19T10:33:21;98306.41;;;17.57;100.00
43364;BME280;40636;52.424;-1.948;2023-09-19T10:35:50;98310.50;;;17.59;100.00
43364;BME280;40636;52.424;-1.948;2023-09-19T10:38:19;98314.69;;;17.65;100.00
43364;BME280;40636;52.424;-1.948;2023-09-19T10:40:50;98314.22;;;17.63;100.00
43364;BME280;40636;52.424;-1.948;2023-09-19T10:43:20;98314.81;;;17.69;100.00
43364;BME280;40636;52.424;-1.948;2023-09-19T10:45:49;98314.16;;;17.72;100.00
43364;BME280;40636;52.424;-1.948;2023-09-19T10:48:19;98321.66;;;17.71;100.00
43364;BME280;40636;52.424;-1.948;2023-09-19T10:51:09;98320.09;;;17.62;100.00
43364;BME280;40636;52.424;-1.948;2023-09-19T10:53:47;98313.25;;;17.59;100.00
43364;BME280;40636;52.424;-1.948;2023-09-19T10:56:24;98313.41;;;17.63;100.00
43364;BME280;40636;52.424;-1.948;2023-09-19T10:59:15;98320.03;;;17.70;100.00
43364;BME280;40636;52.424;-1.948;2023-09-19T11:01:46;98323.13;;;17.78;100.00
43364;BME280;40636;52.424;-1.948;2023-09-19T11:04:30;98333.91;;;17.70;100.00
43364;BME280;40636;52.424;-1.948;2023-09-19T11:07:05;98333.63;;;17.63;100.00
43364;BME280;40636;52.424;-1.948;2023-09-19T11:09:45;98327.66;;;17.53;100.00
43364;BME280;40636;52.424;-1.948;2023-09-19T11:15:08;98318.81;;;17.59;100.00
43364;BME280;40636;52.424;-1.948;2023-09-19T11:17:36;98335.91;;;17.61;100.00
43364;BME280;40636;52.424;-1.948;2023-09-19T11:30:45;98338.56;;;17.58;100.00
43364;BME280;40636;52.424;-1.948;2023-09-19T11:36:15;98334.84;;;17.54;100.00
43364;BME280;40636;52.424;-1.948;2023-09-19T11:43:49;98343.97;;;17.54;100.00
43364;BME280;40636;52.424;-1.948;2023-09-19T11:46:21;98339.09;;;17.51;100.00
43364;BME280;40636;52.424;-1.948;2023-09-19T11:48:49;98345.03;;;17.41;100.00
43364;BME280;40636;52.424;-1.948;2023-09-19T11:51:21;98334.25;;;17.39;100.00
43364;BME280;40636;52.424;-1.948;2023-09-19T11:53:58;98354.16;;;17.41;100.00
43364;BME280;40636;52.424;-1.948;2023-09-19T11:56:28;98346.94;;;17.49;100.00
43364;BME280;40636;52.424;-1.948;2023-09-19T11:58:56;98341.72;;;17.47;100.00
43364;BME280;40636;52.424;-1.948;2023-09-19T12:01:32;98341.66;;;17.56;100.00
43364;BME280;40636;52.424;-1.948;2023-09-19T12:04:02;98337.88;;;17.61;100.00
43364;BME280;40636;52.424;-1.948;2023-09-19T12:06:31;98342.09;;;17.67;100.00
43364;BME280;40636;52.424;-1.948;2023-09-19T12:09:03;98344.53;;;17.68;100.00
43364;BME280;40636;52.424;-1.948;2023-09-19T12:11:41;98351.25;;;17.67;100.00
43364;BME280;40636;52.424;-1.948;2023-09-19T12:14:09;98350.94;;;17.60;100.00
43364;BME280;40636;52.424;-1.948;2023-09-19T12:16:36;98348.03;;;17.57;100.00
43364;BME280;40636;52.424;-1.948;2023-09-19T12:19:20;98347.00;;;17.61;100.00
43364;BME280;40636;52.424;-1.948;2023-09-19T12:22:00;98352.75;;;17.56;100.00
43364;BME280;40636;52.424;-1.948;2023-09-19T12:24:32;98358.31;;;17.56;100.00
43364;BME280;40636;52.424;-1.948;2023-09-19T12:27:03;98364.41;;;17.49;100.00
43364;BME280;40636;52.424;-1.948;2023-09-19T12:29:44;98368.63;;;17.47;100.00
43364;BME280;40636;52.424;-1.948;2023-09-19T12:32:11;98356.41;;;17.48;100.00
43364;BME280;40636;52.424;-1.948;2023-09-19T12:34:40;98355.63;;;17.39;100.00
43364;BME280;40636;52.424;-1.948;2023-09-19T12:37:11;98361.66;;;17.41;100.00
43364;BME280;40636;52.424;-1.948;2023-09-19T12:39:43;98351.03;;;17.43;100.00
43364;BME280;40636;52.424;-1.948;2023-09-19T12:42:16;98364.59;;;17.44;100.00
43364;BME280;40636;52.424;-1.948;2023-09-19T12:44:45;98362.94;;;17.43;100.00
43364;BME280;40636;52.424;-1.948;2023-09-19T12:47:17;98362.47;;;17.41;100.00
43364;BME280;40636;52.424;-1.948;2023-09-19T12:52:49;98344.41;;;17.35;100.00
43364;BME280;40636;52.424;-1.948;2023-09-19T12:55:30;98350.91;;;17.39;100.00
43364;BME280;40636;52.424;-1.948;2023-09-19T13:00:40;98354.81;;;17.38;100.00
43364;BME280;40636;52.424;-1.948;2023-09-19T13:03:17;98357.28;;;17.40;100.00
43364;BME280;40636;52.424;-1.948;2023-09-19T13:05:59;98353.06;;;17.34;100.00
43364;BME280;40636;52.424;-1.948;2023-09-19T13:08:29;98358.28;;;17.35;100.00
43364;BME280;40636;52.424;-1.948;2023-09-19T13:13:44;98337.25;;;17.25;100.00
43364;BME280;40636;52.424;-1.948;2023-09-19T13:16:16;98348.84;;;17.28;100.00
43364;BME280;40636;52.424;-1.948;2023-09-19T13:18:53;98348.19;;;17.31;100.00
43364;BME280;40636;52.424;-1.948;2023-09-19T13:21:32;98349.13;;;17.35;100.00
43364;BME280;40636;52.424;-1.948;2023-09-19T13:24:25;98354.00;;;17.38;100.00
43364;BME280;40636;52.424;-1.948;2023-09-19T13:26:54;98352.97;;;17.51;100.00
43364;BME280;40636;52.424;-1.948;2023-09-19T13:29:22;98366.38;;;17.49;100.00
43364;BME280;40636;52.424;-1.948;2023-09-19T13:31:52;98366.06;;;17.42;100.00
43364;BME280;40636;52.424;-1.948;2023-09-19T13:34:22;98359.34;;;17.43;100.00
43364;BME280;40636;52.424;-1.948;2023-09-19T13:36:49;98348.28;;;17.43;100.00
43364;BME280;40636;52.424;-1.948;2023-09-19T13:39:16;98357.34;;;17.52;100.00
43364;BME280;40636;52.424;-1.948;2023-09-19T13:41:47;98352.81;;;17.47;100.00
43364;BME280;40636;52.424;-1.948;2023-09-19T13:44:15;98354.78;;;17.47;100.00
43364;BME280;40636;52.424;-1.948;2023-09-19T13:46:44;98360.06;;;17.40;100.00
43364;BME280;40636;52.424;-1.948;2023-09-19T13:49:13;98366.38;;;17.49;100.00
43364;BME280;40636;52.424;-1.948;2023-09-19T13:51:40;98361.75;;;17.53;100.00
43364;BME280;40636;52.424;-1.948;2023-09-19T13:54:11;98367.28;;;17.53;100.00